sensor_id;sensor_type;location;lat;lon;timestamp;pressure;altitude;pressure_sealevel;temperature;humidity
13456;BME280;6800;50.940;6.940;2023-01-30T00:03:32;101261.16;;;15.19;42.24
13456;BME280;6800;50.940;6.940;2023-01-30T00:07:34;101268.34;;;15.30;41.83
13456;BME280;6800;50.940;6.940;2023-01-30T00:11:35;101247.56;;;15.52;41.54
13456;BME280;6800;50.940;6.940;2023-01-30T00:15:37;101229.69;;;15.05;42.66
13456;BME280;6800;50.940;6.940;2023-01-30T00:19:38;101212.28;;;15.54;41.89
13456;BME280;6800;50.940;6.940;2023-01-30T00:23:40;101230.72;;;15.67;41.34
13456;BME280;6800;50.940;6.940;2023-01-30T00:27:41;101218.09;;;15.59;41.84
13456;BME280;6800;50.940;6.940;2023-01-30T00:31:42;101217.13;;;15.86;41.04
13456;BME280;6800;50.940;6.940;2023-01-30T00:35:45;101216.19;;;15.74;41.30
13456;BME280;6800;50.940;6.940;2023-01-30T00:39:47;101212.09;;;15.57;41.91
13456;BME280;6800;50.940;6.940;2023-01-30T00:43:48;101203.16;;;15.47;41.97
13456;BME280;6800;50.940;6.940;2023-01-30T00:48:08;101200.59;;;15.84;41.56
13456;BME280;6800;50.940;6.940;2023-01-30T00:52:10;101187.94;;;15.89;41.39
13456;BME280;6800;50.940;6.940;2023-01-30T00:56:11;101185.97;;;15.54;41.86
13456;BME280;6800;50.940;6.940;2023-01-30T01:00:13;101189.44;;;15.68;41.96
13456;BME280;6800;50.940;6.940;2023-01-30T01:04:17;101181.47;;;16.05;41.17
13456;BME280;6800;50.940;6.940;2023-01-30T01:08:18;101156.34;;;15.89;41.40
13456;BME280;6800;50.940;6.940;2023-01-30T01:12:20;101160.19;;;15.59;42.04
13456;BME280;6800;50.940;6.940;2023-01-30T01:16:22;101168.81;;;15.61;41.94
13456;BME280;6800;50.940;6.940;2023-01-30T01:20:24;101174.25;;;15.96;41.29
13456;BME280;6800;50.940;6.940;2023-01-30T01:24:26;101160.16;;;15.85;41.49
13456;BME280;6800;50.940;6.940;2023-01-30T01:28:28;101154.06;;;15.34;42.60
13456;BME280;6800;50.940;6.940;2023-01-30T01:32:29;101150.31;;;15.50;42.22
13456;BME280;6800;50.940;6.940;2023-01-30T01:36:30;101154.06;;;15.34;42.62
13456;BME280;6800;50.940;6.940;2023-01-30T01:40:52;101145.88;;;16.00;41.40
13456;BME280;6800;50.940;6.940;2023-01-30T01:49:16;101119.06;;;15.58;42.11
13456;BME280;6800;50.940;6.940;2023-01-30T01:53:21;101118.66;;;15.88;41.26
13456;BME280;6800;50.940;6.940;2023-01-30T01:57:30;101128.19;;;15.66;41.90
13456;BME280;6800;50.940;6.940;2023-01-30T02:01:33;101112.81;;;15.59;42.19
13456;BME280;6800;50.940;6.940;2023-01-30T02:05:38;101110.72;;;15.65;42.09
13456;BME280;6800;50.940;6.940;2023-01-30T02:09:41;101102.22;;;15.23;42.85
13456;BME280;6800;50.940;6.940;2023-01-30T02:13:46;101098.94;;;15.57;42.19
13456;BME280;6800;50.940;6.940;2023-01-30T02:17:48;101087.16;;;15.50;42.59
13456;BME280;6800;50.940;6.940;2023-01-30T02:22:17;101064.66;;;15.46;42.57
13456;BME280;6800;50.940;6.940;2023-01-30T02:39:51;101060.03;;;15.74;42.23
13456;BME280;6800;50.940;6.940;2023-01-30T02:44:06;101046.03;;;15.37;42.87
13456;BME280;6800;50.940;6.940;2023-01-30T02:52:33;101037.00;;;15.28;43.50
13456;BME280;6800;50.940;6.940;2023-01-30T02:56:49;101018.09;;;15.59;42.92
13456;BME280;6800;50.940;6.940;2023-01-30T03:01:06;101013.28;;;15.41;43.59
13456;BME280;6800;50.940;6.940;2023-01-30T03:05:36;101000.72;;;15.08;43.93
13456;BME280;6800;50.940;6.940;2023-01-30T03:10:06;100993.47;;;15.12;44.04
13456;BME280;6800;50.940;6.940;2023-01-30T03:14:28;100989.38;;;15.20;43.70
13456;BME280;6800;50.940;6.940;2023-01-30T03:18:30;100988.63;;;15.54;43.39
13456;BME280;6800;50.940;6.940;2023-01-30T03:22:32;100977.78;;;15.10;43.92
13456;BME280;6800;50.940;6.940;2023-01-30T03:26:36;100981.13;;;15.61;42.63
13456;BME280;6800;50.940;6.940;2023-01-30T03:30:40;100988.66;;;14.55;45.31
13456;BME280;6800;50.940;6.940;2023-01-30T03:34:41;100988.97;;;15.74;42.45
13456;BME280;6800;50.940;6.940;2023-01-30T03:38:43;100978.88;;;15.56;43.05
13456;BME280;6800;50.940;6.940;2023-01-30T03:42:44;100978.88;;;15.56;43.39
13456;BME280;6800;50.940;6.940;2023-01-30T03:46:46;100970.06;;;15.92;42.60
13456;BME280;6800;50.940;6.940;2023-01-30T03:50:47;100967.84;;;15.39;43.33
13456;BME280;6800;50.940;6.940;2023-01-30T03:54:49;100946.72;;;15.64;43.04
13456;BME280;6800;50.940;6.940;2023-01-30T03:58:50;100951.53;;;15.70;42.99
13456;BME280;6800;50.940;6.940;2023-01-30T04:02:51;100942.38;;;15.03;44.65
13456;BME280;6800;50.940;6.940;2023-01-30T04:06:55;100930.47;;;15.70;42.89
13456;BME280;6800;50.940;6.940;2023-01-30T04:10:56;100927.81;;;15.94;42.61
13456;BME280;6800;50.940;6.940;2023-01-30T04:15:00;100927.53;;;15.86;42.86
13456;BME280;6800;50.940;6.940;2023-01-30T04:19:01;100907.75;;;15.80;43.02
13456;BME280;6800;50.940;6.940;2023-01-30T04:23:03;100905.84;;;15.47;44.08
13456;BME280;6800;50.940;6.940;2023-01-30T04:27:04;100895.53;;;15.68;43.48
13456;BME280;6800;50.940;6.940;2023-01-30T04:31:06;100885.56;;;15.37;44.35
13456;BME280;6800;50.940;6.940;2023-01-30T04:35:08;100900.44;;;15.25;44.81
13456;BME280;6800;50.940;6.940;2023-01-30T04:39:09;100924.84;;;15.98;43.16
13456;BME280;6800;50.940;6.940;2023-01-30T04:43:11;100918.41;;;16.13;43.34
13456;BME280;6800;50.940;6.940;2023-01-30T04:47:12;100920.59;;;16.41;43.07
13456;BME280;6800;50.940;6.940;2023-01-30T04:51:13;100910.81;;;15.63;44.36
13456;BME280;6800;50.940;6.940;2023-01-30T04:55:15;100919.06;;;15.58;44.26
13456;BME280;6800;50.940;6.940;2023-01-30T04:59:17;100911.66;;;15.98;44.18
13456;BME280;6800;50.940;6.940;2023-01-30T05:03:18;100899.47;;;16.08;43.39
13456;BME280;6800;50.940;6.940;2023-01-30T05:07:19;100901.31;;;15.84;44.09
13456;BME280;6800;50.940;6.940;2023-01-30T05:11:22;100892.59;;;15.95;44.45
13456;BME280;6800;50.940;6.940;2023-01-30T05:15:24;100887.28;;;16.07;44.70
13456;BME280;6800;50.940;6.940;2023-01-30T05:19:25;100888.97;;;15.26;46.26
13456;BME280;6800;50.940;6.940;2023-01-30T05:23:26;100899.16;;;15.54;46.21
13456;BME280;6800;50.940;6.940;2023-01-30T05:27:28;100889.47;;;15.79;45.94
13456;BME280;6800;50.940;6.940;2023-01-30T05:31:29;100885.56;;;15.95;45.96
13456;BME280;6800;50.940;6.940;2023-01-30T05:35:30;100887.78;;;15.43;46.47
13456;BME280;6800;50.940;6.940;2023-01-30T05:39:32;100880.78;;;16.00;45.75
13456;BME280;6800;50.940;6.940;2023-01-30T05:43:34;100876.81;;;15.95;46.11
13456;BME280;6800;50.940;6.940;2023-01-30T05:47:35;100874.56;;;16.01;45.87
13456;BME280;6800;50.940;6.940;2023-01-30T05:51:36;100861.47;;;15.78;46.40
13456;BME280;6800;50.940;6.940;2023-01-30T05:55:38;100869.56;;;16.31;44.93
13456;BME280;6800;50.940;6.940;2023-01-30T05:59:39;100870.22;;;15.89;46.12
13456;BME280;6800;50.940;6.940;2023-01-30T06:03:40;100869.56;;;15.63;46.39
13456;BME280;6800;50.940;6.940;2023-01-30T06:07:42;100884.63;;;15.96;45.84
13456;BME280;6800;50.940;6.940;2023-01-30T06:11:43;100881.00;;;15.97;45.66
13456;BME280;6800;50.940;6.940;2023-01-30T06:15:45;100863.56;;;15.96;45.87
13456;BME280;6800;50.940;6.940;2023-01-30T06:19:46;100868.03;;;15.72;45.93
13456;BME280;6800;50.940;6.940;2023-01-30T06:23:47;100876.00;;;16.16;44.77
13456;BME280;6800;50.940;6.940;2023-01-30T06:27:49;100881.06;;;16.19;44.83
13456;BME280;6800;50.940;6.940;2023-01-30T06:31:50;100892.56;;;16.29;44.80
13456;BME280;6800;50.940;6.940;2023-01-30T06:35:52;100912.13;;;16.03;45.16
13456;BME280;6800;50.940;6.940;2023-01-30T06:39:53;100901.28;;;16.19;45.26
13456;BME280;6800;50.940;6.940;2023-01-30T06:43:54;100892.94;;;15.79;46.35
13456;BME280;6800;50.940;6.940;2023-01-30T06:47:56;100896.47;;;16.02;45.43
13456;BME280;6800;50.940;6.940;2023-01-30T06:51:57;100896.28;;;16.49;44.41
13456;BME280;6800;50.940;6.940;2023-01-30T06:56:00;100894.09;;;15.99;45.92
13456;BME280;6800;50.940;6.940;2023-01-30T07:00:04;100906.56;;;16.19;45.71
13456;BME280;6800;50.940;6.940;2023-01-30T07:04:06;100903.47;;;16.47;46.06
13456;BME280;6800;50.940;6.940;2023-01-30T07:08:08;100919.44;;;16.79;45.93
13456;BME280;6800;50.940;6.940;2023-01-30T07:12:10;100931.53;;;16.59;45.78
13456;BME280;6800;50.940;6.940;2023-01-30T07:16:11;100918.72;;;16.55;45.24
13456;BME280;6800;50.940;6.940;2023-01-30T07:20:12;100925.50;;;15.89;47.08
13456;BME280;6800;50.940;6.940;2023-01-30T07:24:14;100926.16;;;16.61;45.42
13456;BME280;6800;50.940;6.940;2023-01-30T07:28:15;100924.31;;;16.39;46.13
13456;BME280;6800;50.940;6.940;2023-01-30T07:32:18;100907.06;;;16.24;46.75
13456;BME280;6800;50.940;6.940;2023-01-30T07:36:20;100918.66;;;16.43;46.47
13456;BME280;6800;50.940;6.940;2023-01-30T07:40:21;100923.72;;;16.47;46.41
13456;BME280;6800;50.940;6.940;2023-01-30T07:44:23;100924.84;;;16.66;46.21
13456;BME280;6800;50.940;6.940;2023-01-30T07:48:24;100917.53;;;16.70;45.67
13456;BME280;6800;50.940;6.940;2023-01-30T07:52:26;100929.50;;;16.52;46.31
13456;BME280;6800;50.940;6.940;2023-01-30T07:56:27;100933.69;;;16.54;46.34
13456;BME280;6800;50.940;6.940;2023-01-30T08:00:29;100936.59;;;16.62;46.77
13456;BME280;6800;50.940;6.940;2023-01-30T08:04:31;100943.00;;;16.47;47.40
13456;BME280;6800;50.940;6.940;2023-01-30T08:08:33;100943.41;;;16.76;46.64
13456;BME280;6800;50.940;6.940;2023-01-30T08:12:34;100932.50;;;16.69;47.13
13456;BME280;6800;50.940;6.940;2023-01-30T08:16:35;100929.00;;;16.47;46.78
13456;BME280;6800;50.940;6.940;2023-01-30T08:20:39;100931.56;;;16.81;46.69
13456;BME280;6800;50.940;6.940;2023-01-30T08:24:40;100932.63;;;16.79;46.34
13456;BME280;6800;50.940;6.940;2023-01-30T08:28:42;100939.47;;;16.81;46.98
13456;BME280;6800;50.940;6.940;2023-01-30T08:32:43;100930.84;;;16.79;47.07
13456;BME280;6800;50.940;6.940;2023-01-30T08:36:47;100956.22;;;16.80;47.05
13456;BME280;6800;50.940;6.940;2023-01-30T08:40:48;100965.50;;;17.40;46.18
13456;BME280;6800;50.940;6.940;2023-01-30T08:44:49;100966.88;;;17.12;46.19
13456;BME280;6800;50.940;6.940;2023-01-30T08:48:51;100952.75;;;17.13;46.49
13456;BME280;6800;50.940;6.940;2023-01-30T08:52:52;100948.41;;;17.23;45.88
13456;BME280;6800;50.940;6.940;2023-01-30T08:56:54;100954.53;;;17.24;45.91
13456;BME280;6800;50.940;6.940;2023-01-30T09:00:55;100954.03;;;18.04;43.52
13456;BME280;6800;50.940;6.940;2023-01-30T09:04:57;100966.59;;;18.74;42.60
13456;BME280;6800;50.940;6.940;2023-01-30T09:08:59;100969.50;;;18.29;42.59
13456;BME280;6800;50.940;6.940;2023-01-30T09:13:00;100954.25;;;19.33;40.51
13456;BME280;6800;50.940;6.940;2023-01-30T09:17:02;100948.66;;;19.26;39.73
13456;BME280;6800;50.940;6.940;2023-01-30T09:21:04;100959.03;;;19.39;39.58
13456;BME280;6800;50.940;6.940;2023-01-30T09:25:06;100978.44;;;19.68;38.46
13456;BME280;6800;50.940;6.940;2023-01-30T09:29:08;100980.16;;;20.07;37.05
13456;BME280;6800;50.940;6.940;2023-01-30T09:33:09;100965.91;;;19.89;37.17
13456;BME280;6800;50.940;6.940;2023-01-30T09:37:11;100972.16;;;20.46;36.12
13456;BME280;6800;50.940;6.940;2023-01-30T09:45:35;100973.38;;;21.07;34.61
13456;BME280;6800;50.940;6.940;2023-01-30T09:50:07;100962.41;;;20.17;34.59
13456;BME280;6800;50.940;6.940;2023-01-30T09:54:18;100971.19;;;20.08;35.00
13456;BME280;6800;50.940;6.940;2023-01-30T09:58:31;100981.97;;;20.26;34.42
13456;BME280;6800;50.940;6.940;2023-01-30T10:03:32;100964.88;;;21.31;32.63
13456;BME280;6800;50.940;6.940;2023-01-30T10:07:22;100975.41;;;22.20;30.99
13456;BME280;6800;50.940;6.940;2023-01-30T10:11:47;100964.00;;;22.53;30.24
13456;BME280;6800;50.940;6.940;2023-01-30T10:15:59;100975.75;;;23.36;29.08
13456;BME280;6800;50.940;6.940;2023-01-30T10:24:42;100979.25;;;22.26;30.70
13456;BME280;6800;50.940;6.940;2023-01-30T10:28:56;100997.53;;;20.67;33.13
13456;BME280;6800;50.940;6.940;2023-01-30T10:33:33;101007.47;;;19.98;33.90
13456;BME280;6800;50.940;6.940;2023-01-30T10:37:54;101003.78;;;18.82;35.50
13456;BME280;6800;50.940;6.940;2023-01-30T10:42:12;101006.00;;;19.37;34.93
13456;BME280;6800;50.940;6.940;2023-01-30T10:46:34;100996.72;;;19.22;34.96
13456;BME280;6800;50.940;6.940;2023-01-30T10:50:49;101006.59;;;19.10;35.05
13456;BME280;6800;50.940;6.940;2023-01-30T10:55:13;101008.19;;;18.72;35.58
13456;BME280;6800;50.940;6.940;2023-01-30T11:04:01;101014.34;;;17.99;36.49
13456;BME280;6800;50.940;6.940;2023-01-30T11:08:03;101020.16;;;17.82;36.08
13456;BME280;6800;50.940;6.940;2023-01-30T11:12:04;101011.63;;;17.89;36.15
13456;BME280;6800;50.940;6.940;2023-01-30T11:16:07;101022.69;;;18.36;36.23
13456;BME280;6800;50.940;6.940;2023-01-30T11:20:19;101024.75;;;18.01;36.62
13456;BME280;6800;50.940;6.940;2023-01-30T11:24:23;101017.47;;;17.93;36.09
13456;BME280;6800;50.940;6.940;2023-01-30T11:28:35;101007.25;;;17.68;36.30
13456;BME280;6800;50.940;6.940;2023-01-30T11:32:41;101015.25;;;18.09;35.71
13456;BME280;6800;50.940;6.940;2023-01-30T11:36:44;101022.94;;;17.80;35.88
13456;BME280;6800;50.940;6.940;2023-01-30T11:40:49;101021.84;;;18.35;35.30
13456;BME280;6800;50.940;6.940;2023-01-30T11:44:56;101026.22;;;18.05;35.78
13456;BME280;6800;50.940;6.940;2023-01-30T11:49:17;101026.22;;;17.40;37.00
13456;BME280;6800;50.940;6.940;2023-01-30T11:53:53;101005.13;;;17.93;36.07
13456;BME280;6800;50.940;6.940;2023-01-30T11:57:58;101000.56;;;18.16;35.88
13456;BME280;6800;50.940;6.940;2023-01-30T12:02:08;101007.78;;;18.14;35.75
13456;BME280;6800;50.940;6.940;2023-01-30T12:06:20;100988.28;;;17.63;35.52
13456;BME280;6800;50.940;6.940;2023-01-30T12:14:34;100995.03;;;18.19;35.59
13456;BME280;6800;50.940;6.940;2023-01-30T12:18:45;101007.97;;;18.22;35.23
13456;BME280;6800;50.940;6.940;2023-01-30T12:23:16;101014.78;;;18.36;34.81
13456;BME280;6800;50.940;6.940;2023-01-30T12:31:30;101011.38;;;17.05;36.41
13456;BME280;6800;50.940;6.940;2023-01-30T12:35:48;101011.34;;;17.50;35.20
13456;BME280;6800;50.940;6.940;2023-01-30T12:44:28;101013.13;;;18.03;34.66
13456;BME280;6800;50.940;6.940;2023-01-30T13:19:17;101038.56;;;18.36;34.29
13456;BME280;6800;50.940;6.940;2023-01-30T13:28:13;101055.34;;;18.66;32.74
13456;BME280;6800;50.940;6.940;2023-01-30T13:32:38;101049.34;;;18.12;33.13
13456;BME280;6800;50.940;6.940;2023-01-30T13:36:50;101073.69;;;18.58;32.47
13456;BME280;6800;50.940;6.940;2023-01-30T13:40:56;101083.59;;;18.03;33.31
13456;BME280;6800;50.940;6.940;2023-01-30T13:44:59;101094.28;;;18.01;32.91
13456;BME280;6800;50.940;6.940;2023-01-30T13:49:06;101104.53;;;18.26;32.86
13456;BME280;6800;50.940;6.940;2023-01-30T13:53:27;101099.84;;;17.98;33.33
13456;BME280;6800;50.940;6.940;2023-01-30T13:57:44;101099.44;;;18.03;33.61
13456;BME280;6800;50.940;6.940;2023-01-30T14:06:31;101119.41;;;18.07;33.45
13456;BME280;6800;50.940;6.940;2023-01-30T14:10:33;101125.97;;;18.12;33.46
13456;BME280;6800;50.940;6.940;2023-01-30T14:14:35;101124.09;;;18.35;33.45
13456;BME280;6800;50.940;6.940;2023-01-30T14:18:38;101133.81;;;18.45;32.78
13456;BME280;6800;50.940;6.940;2023-01-30T14:30:49;101136.19;;;18.59;32.82
13456;BME280;6800;50.940;6.940;2023-01-30T14:39:39;101145.50;;;18.32;32.66
13456;BME280;6800;50.940;6.940;2023-01-30T14:47:42;101151.16;;;18.27;32.61
13456;BME280;6800;50.940;6.940;2023-01-30T14:51:49;101158.19;;;17.95;33.86
13456;BME280;6800;50.940;6.940;2023-01-30T14:56:00;101150.28;;;18.38;32.89
13456;BME280;6800;50.940;6.940;2023-01-30T15:00:13;101176.66;;;18.17;32.93
13456;BME280;6800;50.940;6.940;2023-01-30T15:04:19;101182.50;;;18.32;32.32
13456;BME280;6800;50.940;6.940;2023-01-30T15:08:23;101187.47;;;18.14;32.68
13456;BME280;6800;50.940;6.940;2023-01-30T15:21:22;101199.22;;;17.44;33.87
13456;BME280;6800;50.940;6.940;2023-01-30T15:34:21;101223.66;;;16.89;34.20
13456;BME280;6800;50.940;6.940;2023-01-30T15:38:32;101248.09;;;17.60;35.04
13456;BME280;6800;50.940;6.940;2023-01-30T15:42:35;101255.69;;;17.87;34.63
13456;BME280;6800;50.940;6.940;2023-01-30T15:47:07;101257.59;;;18.07;34.08
13456;BME280;6800;50.940;6.940;2023-01-30T15:51:15;101251.53;;;17.04;35.23
13456;BME280;6800;50.940;6.940;2023-01-30T15:55:23;101269.00;;;17.29;34.64
13456;BME280;6800;50.940;6.940;2023-01-30T16:03:39;101283.72;;;17.20;35.43
13456;BME280;6800;50.940;6.940;2023-01-30T16:07:42;101285.13;;;17.48;34.83
13456;BME280;6800;50.940;6.940;2023-01-30T16:11:44;101295.75;;;16.77;36.17
13456;BME280;6800;50.940;6.940;2023-01-30T16:20:02;101308.56;;;17.29;36.16
13456;BME280;6800;50.940;6.940;2023-01-30T16:24:20;101307.41;;;17.67;35.05
13456;BME280;6800;50.940;6.940;2023-01-30T16:28:24;101316.94;;;16.99;36.29
13456;BME280;6800;50.940;6.940;2023-01-30T16:32:27;101312.72;;;17.09;36.26
13456;BME280;6800;50.940;6.940;2023-01-30T16:36:37;101323.59;;;17.28;35.36
13456;BME280;6800;50.940;6.940;2023-01-30T16:40:43;101325.00;;;16.97;36.24
13456;BME280;6800;50.940;6.940;2023-01-30T16:44:47;101335.22;;;17.26;35.23
13456;BME280;6800;50.940;6.940;2023-01-30T16:48:49;101343.41;;;16.74;36.00
13456;BME280;6800;50.940;6.940;2023-01-30T16:52:52;101361.38;;;16.92;35.82
13456;BME280;6800;50.940;6.940;2023-01-30T16:56:56;101365.50;;;16.60;36.43
13456;BME280;6800;50.940;6.940;2023-01-30T17:00:59;101377.56;;;17.11;35.40
13456;BME280;6800;50.940;6.940;2023-01-30T17:05:29;101385.47;;;16.88;35.71
13456;BME280;6800;50.940;6.940;2023-01-30T17:09:39;101392.63;;;16.98;35.43
13456;BME280;6800;50.940;6.940;2023-01-30T17:13:42;101397.56;;;17.27;35.20
13456;BME280;6800;50.940;6.940;2023-01-30T17:17:44;101400.78;;;17.43;35.03
13456;BME280;6800;50.940;6.940;2023-01-30T17:21:49;101414.81;;;16.83;35.47
13456;BME280;6800;50.940;6.940;2023-01-30T17:25:51;101418.44;;;17.06;35.45
13456;BME280;6800;50.940;6.940;2023-01-30T17:29:53;101421.00;;;16.95;35.78
13456;BME280;6800;50.940;6.940;2023-01-30T17:33:54;101422.88;;;17.29;35.29
13456;BME280;6800;50.940;6.940;2023-01-30T17:37:55;101430.44;;;17.70;34.53
13456;BME280;6800;50.940;6.940;2023-01-30T17:42:09;101438.69;;;17.42;35.03
13456;BME280;6800;50.940;6.940;2023-01-30T17:46:12;101442.63;;;17.36;34.90
13456;BME280;6800;50.940;6.940;2023-01-30T17:50:13;101441.19;;;17.20;34.94
13456;BME280;6800;50.940;6.940;2023-01-30T17:54:15;101447.56;;;17.41;34.81
13456;BME280;6800;50.940;6.940;2023-01-30T17:58:17;101453.56;;;17.43;34.95
13456;BME280;6800;50.940;6.940;2023-01-30T18:02:19;101456.69;;;17.48;35.14
13456;BME280;6800;50.940;6.940;2023-01-30T18:06:20;101461.59;;;17.17;35.34
13456;BME280;6800;50.940;6.940;2023-01-30T18:10:21;101468.31;;;17.22;35.53
13456;BME280;6800;50.940;6.940;2023-01-30T18:14:23;101476.06;;;17.36;35.23
13456;BME280;6800;50.940;6.940;2023-01-30T18:18:25;101476.84;;;16.76;36.79
13456;BME280;6800;50.940;6.940;2023-01-30T18:22:27;101486.03;;;16.58;35.93
13456;BME280;6800;50.940;6.940;2023-01-30T18:26:28;101497.91;;;16.89;36.14
13456;BME280;6800;50.940;6.940;2023-01-30T18:30:30;101495.88;;;16.42;37.04
13456;BME280;6800;50.940;6.940;2023-01-30T18:34:31;101504.69;;;16.80;36.55
13456;BME280;6800;50.940;6.940;2023-01-30T18:38:33;101515.34;;;16.27;37.67
13456;BME280;6800;50.940;6.940;2023-01-30T18:42:34;101505.31;;;16.71;36.41
13456;BME280;6800;50.940;6.940;2023-01-30T18:46:36;101513.31;;;16.95;36.12
13456;BME280;6800;50.940;6.940;2023-01-30T18:50:37;101508.78;;;16.84;36.25
13456;BME280;6800;50.940;6.940;2023-01-30T18:54:39;101521.50;;;16.40;37.50
13456;BME280;6800;50.940;6.940;2023-01-30T18:58:40;101513.22;;;16.71;36.34
13456;BME280;6800;50.940;6.940;2023-01-30T19:02:42;101509.09;;;16.67;36.40
13456;BME280;6800;50.940;6.940;2023-01-30T19:06:43;101527.47;;;16.56;36.73
13456;BME280;6800;50.940;6.940;2023-01-30T19:10:45;101530.19;;;16.80;36.51
13456;BME280;6800;50.940;6.940;2023-01-30T19:14:46;101524.59;;;16.72;36.53
13456;BME280;6800;50.940;6.940;2023-01-30T19:18:48;101535.78;;;17.00;36.24
13456;BME280;6800;50.940;6.940;2023-01-30T19:22:50;101543.06;;;16.84;36.43
13456;BME280;6800;50.940;6.940;2023-01-30T19:26:51;101544.78;;;16.85;36.73
13456;BME280;6800;50.940;6.940;2023-01-30T19:30:52;101549.31;;;16.83;36.50
13456;BME280;6800;50.940;6.940;2023-01-30T19:34:54;101553.19;;;16.65;36.96
13456;BME280;6800;50.940;6.940;2023-01-30T19:38:56;101565.69;;;16.10;37.79
13456;BME280;6800;50.940;6.940;2023-01-30T19:43:00;101572.13;;;16.45;37.39
13456;BME280;6800;50.940;6.940;2023-01-30T19:47:11;101583.94;;;16.52;37.35
13456;BME280;6800;50.940;6.940;2023-01-30T19:55:17;101597.25;;;16.63;39.17
13456;BME280;6800;50.940;6.940;2023-01-30T19:59:20;101613.59;;;16.56;37.73
13456;BME280;6800;50.940;6.940;2023-01-30T20:03:22;101604.88;;;16.80;37.38
13456;BME280;6800;50.940;6.940;2023-01-30T20:07:23;101603.09;;;16.93;36.88
13456;BME280;6800;50.940;6.940;2023-01-30T20:11:25;101605.28;;;16.62;37.82
13456;BME280;6800;50.940;6.940;2023-01-30T20:15:27;101615.72;;;16.63;37.82
13456;BME280;6800;50.940;6.940;2023-01-30T20:19:28;101614.94;;;16.88;37.17
13456;BME280;6800;50.940;6.940;2023-01-30T20:23:30;101621.25;;;16.85;37.49
13456;BME280;6800;50.940;6.940;2023-01-30T20:27:32;101619.84;;;16.92;36.82
13456;BME280;6800;50.940;6.940;2023-01-30T20:31:34;101626.22;;;17.02;37.01
13456;BME280;6800;50.940;6.940;2023-01-30T20:35:35;101637.06;;;16.85;36.97
13456;BME280;6800;50.940;6.940;2023-01-30T20:39:36;101634.31;;;16.99;37.43
13456;BME280;6800;50.940;6.940;2023-01-30T20:43:40;101626.81;;;16.68;37.43
13456;BME280;6800;50.940;6.940;2023-01-30T20:47:42;101626.41;;;17.12;36.71
13456;BME280;6800;50.940;6.940;2023-01-30T20:51:44;101634.31;;;16.74;37.79
13456;BME280;6800;50.940;6.940;2023-01-30T20:55:46;101645.72;;;16.87;37.41
13456;BME280;6800;50.940;6.940;2023-01-30T20:59:52;101652.94;;;16.71;37.72
13456;BME280;6800;50.940;6.940;2023-01-30T21:03:53;101658.22;;;16.71;37.84
13456;BME280;6800;50.940;6.940;2023-01-30T21:07:56;101647.53;;;16.99;37.35
13456;BME280;6800;50.940;6.940;2023-01-30T21:11:58;101652.41;;;16.54;37.94
13456;BME280;6800;50.940;6.940;2023-01-30T21:20:11;101652.91;;;16.85;37.80
13456;BME280;6800;50.940;6.940;2023-01-30T21:24:13;101661.88;;;17.08;38.34
13456;BME280;6800;50.940;6.940;2023-01-30T21:28:15;101672.81;;;16.50;39.92
13456;BME280;6800;50.940;6.940;2023-01-30T21:32:17;101667.50;;;16.64;39.72
13456;BME280;6800;50.940;6.940;2023-01-30T21:36:19;101673.56;;;16.79;38.80
13456;BME280;6800;50.940;6.940;2023-01-30T21:40:20;101683.25;;;16.78;38.84
13456;BME280;6800;50.940;6.940;2023-01-30T21:44:40;101689.41;;;16.65;39.10
13456;BME280;6800;50.940;6.940;2023-01-30T21:48:41;101700.84;;;16.78;38.61
13456;BME280;6800;50.940;6.940;2023-01-30T21:52:45;101695.94;;;16.59;39.00
13456;BME280;6800;50.940;6.940;2023-01-30T21:56:46;101702.25;;;16.57;38.84
13456;BME280;6800;50.940;6.940;2023-01-30T22:00:48;101699.88;;;15.71;40.82
13456;BME280;6800;50.940;6.940;2023-01-30T22:04:49;101702.53;;;16.25;39.09
13456;BME280;6800;50.940;6.940;2023-01-30T22:08:57;101706.66;;;16.29;39.51
13456;BME280;6800;50.940;6.940;2023-01-30T22:12:59;101716.09;;;16.19;39.64
13456;BME280;6800;50.940;6.940;2023-01-30T22:17:03;101713.69;;;16.43;39.16
13456;BME280;6800;50.940;6.940;2023-01-30T22:21:06;101711.44;;;16.37;39.30
13456;BME280;6800;50.940;6.940;2023-01-30T22:25:08;101719.13;;;16.54;38.62
13456;BME280;6800;50.940;6.940;2023-01-30T22:29:10;101711.78;;;16.59;38.44
13456;BME280;6800;50.940;6.940;2023-01-30T22:33:11;101725.38;;;16.39;39.12
13456;BME280;6800;50.940;6.940;2023-01-30T22:37:13;101726.31;;;16.65;38.67
13456;BME280;6800;50.940;6.940;2023-01-30T22:41:18;101719.75;;;16.84;37.94
13456;BME280;6800;50.940;6.940;2023-01-30T22:45:20;101731.25;;;16.83;37.92
13456;BME280;6800;50.940;6.940;2023-01-30T22:49:22;101738.16;;;16.98;37.43
13456;BME280;6800;50.940;6.940;2023-01-30T22:53:23;101740.59;;;16.62;38.27
13456;BME280;6800;50.940;6.940;2023-01-30T22:57:25;101738.53;;;16.92;37.74
13456;BME280;6800;50.940;6.940;2023-01-30T23:01:32;101738.56;;;16.66;37.99
13456;BME280;6800;50.940;6.940;2023-01-30T23:05:37;101739.63;;;16.63;38.09
13456;BME280;6800;50.940;6.940;2023-01-30T23:09:39;101736.09;;;16.77;37.76
13456;BME280;6800;50.940;6.940;2023-01-30T23:13:42;101733.44;;;16.50;38.17
13456;BME280;6800;50.940;6.940;2023-01-30T23:17:44;101733.50;;;16.63;37.96
13456;BME280;6800;50.940;6.940;2023-01-30T23:22:04;101735.94;;;16.66;37.76
13456;BME280;6800;50.940;6.940;2023-01-30T23:26:06;101737.50;;;16.56;38.03
13456;BME280;6800;50.940;6.940;2023-01-30T23:30:08;101735.94;;;16.25;38.11
13456;BME280;6800;50.940;6.940;2023-01-30T23:34:13;101730.22;;;16.59;37.55
13456;BME280;6800;50.940;6.940;2023-01-30T23:38:15;101731.41;;;16.27;38.26
13456;BME280;6800;50.940;6.940;2023-01-30T23:42:16;101727.78;;;16.15;38.39
13456;BME280;6800;50.940;6.940;2023-01-30T23:46:24;101726.41;;;16.77;37.24
13456;BME280;6800;50.940;6.940;2023-01-30T23:50:25;101735.44;;;16.73;37.40
13456;BME280;6800;50.940;6.940;2023-01-30T23:54:27;101732.16;;;16.70;37.76
13456;BME280;6800;50.940;6.940;2023-01-30T23:58:28;101733.78;;;16.85;37.46
